Terminal Aerodrome Forecast
Issued by NWS Hastings, NE

Home | Current Version | Previous Version | Text Only | Print | Product List | Glossary On
Versions: 1 2 3 4 5 6 7 8 9 10 11 12 13 14 15 16 17 18 19 20 21 22 23 24 25 26 27 28 29 30
000
FTUS43 KGID 221720
TAFGRI
TAF
KGRI 221720Z 2218/2318 23012KT P6SM SKC
     FM222300 20009KT P6SM SKC
     FM230700 24009KT P6SM FEW250
     FM230900 31012KT P6SM FEW250 WS010/33045KT
     FM231300 33018G28KT P6SM SCT250 WS010/34045KT
     FM231600 32022G31KT P6SM FEW250 WS010/32035KT=

USA.gov is the U.S. government's official web portal to all federal, state and local government web resources and services.